Quillayute, Washington
Current Conditions -  °F | °C
As of 4:53 PM on Thursday 18 Dec 2014 (Local Time) from KUIL Reporting Station
Moderate Rain Moderate Rain  
Wind Chill: 44°   Ceiling: 2700
Heat Index: 49°   Visibility: 2mi
Dew Point: 48°   Wind: 14mph
Humidity: 97%   Direction: 140°SE
Pressure: 29.61"   Gusts: 20mph
Location:  47.95°N, 124.55°W
Report Text: KUIL 190053Z AUTO 14012G17KT 2SM RA BR SCT013 SCT020 OVC027 09/09 A2961 RMK AO2 SLP026 P0020 T00940089
Loading
Personal Weather Stations






























Interactive Weather Map New forecast layout! Learn more

10-Day Weather Forecast

Advertisements
Track Severe Weather on mobile